sensor_id;sensor_type;location;lat;lon;timestamp;temperature;humidity
36132;DHT22;22185;48.738;9.324;2022-08-19T00:00:57;21.90;99.90
36132;DHT22;22185;48.738;9.324;2022-08-19T00:02:59;21.90;99.90
36132;DHT22;22185;48.738;9.324;2022-08-19T00:05:01;21.80;99.90
36132;DHT22;22185;48.738;9.324;2022-08-19T00:07:05;21.80;99.90
36132;DHT22;22185;48.738;9.324;2022-08-19T00:09:11;21.60;99.90
36132;DHT22;22185;48.738;9.324;2022-08-19T00:11:13;21.40;99.90
36132;DHT22;22185;48.738;9.324;2022-08-19T00:13:26;21.50;99.90
36132;DHT22;22185;48.738;9.324;2022-08-19T00:15:30;21.40;99.90
36132;DHT22;22185;48.738;9.324;2022-08-19T00:17:31;21.20;99.90
36132;DHT22;22185;48.738;9.324;2022-08-19T00:19:34;21.20;99.90
36132;DHT22;22185;48.738;9.324;2022-08-19T00:21:37;21.20;99.90
36132;DHT22;22185;48.738;9.324;2022-08-19T00:23:41;21.20;99.90
36132;DHT22;22185;48.738;9.324;2022-08-19T00:25:44;21.20;99.90
36132;DHT22;22185;48.738;9.324;2022-08-19T00:27:49;21.20;99.90
36132;DHT22;22185;48.738;9.324;2022-08-19T00:29:51;21.20;99.90
36132;DHT22;22185;48.738;9.324;2022-08-19T00:31:53;21.10;99.90
36132;DHT22;22185;48.738;9.324;2022-08-19T00:33:59;21.20;99.90
36132;DHT22;22185;48.738;9.324;2022-08-19T00:36:02;21.20;99.90
36132;DHT22;22185;48.738;9.324;2022-08-19T00:38:06;21.10;99.90
36132;DHT22;22185;48.738;9.324;2022-08-19T00:40:08;21.10;99.90
36132;DHT22;22185;48.738;9.324;2022-08-19T00:42:11;21.10;99.90
36132;DHT22;22185;48.738;9.324;2022-08-19T00:44:19;21.10;99.90
36132;DHT22;22185;48.738;9.324;2022-08-19T00:46:28;21.10;99.90
36132;DHT22;22185;48.738;9.324;2022-08-19T00:48:32;21.10;99.90
36132;DHT22;22185;48.738;9.324;2022-08-19T00:50:34;21.00;99.90
36132;DHT22;22185;48.738;9.324;2022-08-19T00:52:52;21.00;99.90
36132;DHT22;22185;48.738;9.324;2022-08-19T00:54:56;21.00;99.90
36132;DHT22;22185;48.738;9.324;2022-08-19T00:56:59;20.90;99.90
36132;DHT22;22185;48.738;9.324;2022-08-19T00:59:03;20.90;99.90
36132;DHT22;22185;48.738;9.324;2022-08-19T01:01:10;21.00;99.90
36132;DHT22;22185;48.738;9.324;2022-08-19T01:03:13;20.90;99.90
36132;DHT22;22185;48.738;9.324;2022-08-19T01:05:22;20.90;99.90
36132;DHT22;22185;48.738;9.324;2022-08-19T01:07:25;20.90;99.90
36132;DHT22;22185;48.738;9.324;2022-08-19T01:09:27;20.90;99.90
36132;DHT22;22185;48.738;9.324;2022-08-19T01:11:31;20.90;99.90
36132;DHT22;22185;48.738;9.324;2022-08-19T01:13:35;20.90;99.90
36132;DHT22;22185;48.738;9.324;2022-08-19T01:16:04;20.80;99.90
36132;DHT22;22185;48.738;9.324;2022-08-19T01:18:09;20.80;99.90
36132;DHT22;22185;48.738;9.324;2022-08-19T01:20:18;20.90;99.90
36132;DHT22;22185;48.738;9.324;2022-08-19T01:24:33;20.90;99.90
36132;DHT22;22185;48.738;9.324;2022-08-19T01:26:47;20.90;99.90
36132;DHT22;22185;48.738;9.324;2022-08-19T01:28:53;20.80;99.90
36132;DHT22;22185;48.738;9.324;2022-08-19T01:31:00;20.80;99.90
36132;DHT22;22185;48.738;9.324;2022-08-19T01:33:08;20.90;99.90
36132;DHT22;22185;48.738;9.324;2022-08-19T01:35:11;20.90;99.90
36132;DHT22;22185;48.738;9.324;2022-08-19T01:37:14;20.80;99.90
36132;DHT22;22185;48.738;9.324;2022-08-19T01:39:27;20.80;99.90
36132;DHT22;22185;48.738;9.324;2022-08-19T01:41:30;20.80;99.90
36132;DHT22;22185;48.738;9.324;2022-08-19T01:43:32;20.80;99.90
36132;DHT22;22185;48.738;9.324;2022-08-19T01:45:35;20.80;99.90
36132;DHT22;22185;48.738;9.324;2022-08-19T01:47:37;20.80;99.90
36132;DHT22;22185;48.738;9.324;2022-08-19T01:49:39;20.80;99.90
36132;DHT22;22185;48.738;9.324;2022-08-19T01:51:41;20.90;99.90
36132;DHT22;22185;48.738;9.324;2022-08-19T01:53:47;20.90;99.90
36132;DHT22;22185;48.738;9.324;2022-08-19T01:55:49;20.80;99.90
36132;DHT22;22185;48.738;9.324;2022-08-19T01:57:55;20.90;99.90
36132;DHT22;22185;48.738;9.324;2022-08-19T01:59:59;20.80;99.90
36132;DHT22;22185;48.738;9.324;2022-08-19T02:02:02;20.80;99.90
36132;DHT22;22185;48.738;9.324;2022-08-19T02:04:04;20.80;99.90
36132;DHT22;22185;48.738;9.324;2022-08-19T02:06:07;20.80;99.90
36132;DHT22;22185;48.738;9.324;2022-08-19T02:08:09;20.70;99.90
36132;DHT22;22185;48.738;9.324;2022-08-19T02:10:15;20.70;99.90
36132;DHT22;22185;48.738;9.324;2022-08-19T02:12:17;20.80;99.90
36132;DHT22;22185;48.738;9.324;2022-08-19T02:14:19;20.80;99.90
36132;DHT22;22185;48.738;9.324;2022-08-19T02:16:21;20.80;99.90
36132;DHT22;22185;48.738;9.324;2022-08-19T02:18:23;20.80;99.90
36132;DHT22;22185;48.738;9.324;2022-08-19T02:20:28;20.80;99.90
36132;DHT22;22185;48.738;9.324;2022-08-19T02:22:30;20.80;99.90
36132;DHT22;22185;48.738;9.324;2022-08-19T02:24:32;20.90;99.90
36132;DHT22;22185;48.738;9.324;2022-08-19T02:26:34;20.90;99.90
36132;DHT22;22185;48.738;9.324;2022-08-19T02:28:36;20.90;99.90
36132;DHT22;22185;48.738;9.324;2022-08-19T02:30:38;20.90;99.90
36132;DHT22;22185;48.738;9.324;2022-08-19T02:32:42;20.90;99.90
36132;DHT22;22185;48.738;9.324;2022-08-19T02:34:46;20.90;99.90
36132;DHT22;22185;48.738;9.324;2022-08-19T02:36:48;20.90;99.90
36132;DHT22;22185;48.738;9.324;2022-08-19T02:38:53;20.90;99.90
36132;DHT22;22185;48.738;9.324;2022-08-19T02:41:00;20.90;99.90
36132;DHT22;22185;48.738;9.324;2022-08-19T02:43:07;20.90;99.90
36132;DHT22;22185;48.738;9.324;2022-08-19T02:45:09;20.90;99.90
36132;DHT22;22185;48.738;9.324;2022-08-19T02:47:11;20.90;99.90
36132;DHT22;22185;48.738;9.324;2022-08-19T02:49:16;20.90;99.90
36132;DHT22;22185;48.738;9.324;2022-08-19T02:51:24;20.90;99.90
36132;DHT22;22185;48.738;9.324;2022-08-19T02:53:27;20.90;99.90
36132;DHT22;22185;48.738;9.324;2022-08-19T02:55:29;20.90;99.90
36132;DHT22;22185;48.738;9.324;2022-08-19T02:57:46;20.80;99.90
36132;DHT22;22185;48.738;9.324;2022-08-19T02:59:48;20.80;99.90
36132;DHT22;22185;48.738;9.324;2022-08-19T03:01:51;20.80;99.90
36132;DHT22;22185;48.738;9.324;2022-08-19T03:03:54;20.80;99.90
36132;DHT22;22185;48.738;9.324;2022-08-19T03:06:10;20.80;99.90
36132;DHT22;22185;48.738;9.324;2022-08-19T03:08:14;20.80;99.90
36132;DHT22;22185;48.738;9.324;2022-08-19T03:10:16;20.80;99.90
36132;DHT22;22185;48.738;9.324;2022-08-19T03:12:18;20.80;99.90
36132;DHT22;22185;48.738;9.324;2022-08-19T03:14:19;20.80;99.90
36132;DHT22;22185;48.738;9.324;2022-08-19T03:16:23;20.80;99.90
36132;DHT22;22185;48.738;9.324;2022-08-19T03:18:25;20.70;99.90
36132;DHT22;22185;48.738;9.324;2022-08-19T03:20:28;20.70;99.90
36132;DHT22;22185;48.738;9.324;2022-08-19T03:22:30;20.70;99.90
36132;DHT22;22185;48.738;9.324;2022-08-19T03:24:32;20.70;99.90
36132;DHT22;22185;48.738;9.324;2022-08-19T03:26:38;20.70;99.90
36132;DHT22;22185;48.738;9.324;2022-08-19T03:28:40;20.70;99.90
36132;DHT22;22185;48.738;9.324;2022-08-19T03:30:56;20.70;99.90
36132;DHT22;22185;48.738;9.324;2022-08-19T03:33:02;20.70;99.90
36132;DHT22;22185;48.738;9.324;2022-08-19T03:35:06;20.70;99.90
36132;DHT22;22185;48.738;9.324;2022-08-19T03:37:09;20.70;99.90
36132;DHT22;22185;48.738;9.324;2022-08-19T03:39:14;20.60;99.90
36132;DHT22;22185;48.738;9.324;2022-08-19T03:41:21;20.70;99.90
36132;DHT22;22185;48.738;9.324;2022-08-19T03:43:23;20.60;99.90
36132;DHT22;22185;48.738;9.324;2022-08-19T03:45:26;20.60;99.90
36132;DHT22;22185;48.738;9.324;2022-08-19T03:47:29;20.60;99.90
36132;DHT22;22185;48.738;9.324;2022-08-19T03:49:32;20.60;99.90
36132;DHT22;22185;48.738;9.324;2022-08-19T03:51:38;20.60;99.90
36132;DHT22;22185;48.738;9.324;2022-08-19T03:53:40;20.60;99.90
36132;DHT22;22185;48.738;9.324;2022-08-19T03:55:42;20.60;99.90
36132;DHT22;22185;48.738;9.324;2022-08-19T03:57:44;20.60;99.90
36132;DHT22;22185;48.738;9.324;2022-08-19T03:59:47;20.60;99.90
36132;DHT22;22185;48.738;9.324;2022-08-19T04:01:49;20.60;99.90
36132;DHT22;22185;48.738;9.324;2022-08-19T04:03:50;20.60;99.90
36132;DHT22;22185;48.738;9.324;2022-08-19T04:05:54;20.60;99.90
36132;DHT22;22185;48.738;9.324;2022-08-19T04:07:56;20.50;99.90
36132;DHT22;22185;48.738;9.324;2022-08-19T04:10:00;20.60;99.90
36132;DHT22;22185;48.738;9.324;2022-08-19T04:12:02;20.60;99.90
36132;DHT22;22185;48.738;9.324;2022-08-19T04:14:06;20.50;99.90
36132;DHT22;22185;48.738;9.324;2022-08-19T04:16:09;20.50;99.90
36132;DHT22;22185;48.738;9.324;2022-08-19T04:18:12;20.50;99.90
36132;DHT22;22185;48.738;9.324;2022-08-19T04:20:14;20.50;99.90
36132;DHT22;22185;48.738;9.324;2022-08-19T04:22:15;20.50;99.90
36132;DHT22;22185;48.738;9.324;2022-08-19T04:24:18;20.60;99.90
36132;DHT22;22185;48.738;9.324;2022-08-19T04:26:25;20.50;99.90
36132;DHT22;22185;48.738;9.324;2022-08-19T04:28:28;20.50;99.90
36132;DHT22;22185;48.738;9.324;2022-08-19T04:30:40;20.50;99.90
36132;DHT22;22185;48.738;9.324;2022-08-19T04:32:43;20.50;99.90
36132;DHT22;22185;48.738;9.324;2022-08-19T04:34:45;20.40;99.90
36132;DHT22;22185;48.738;9.324;2022-08-19T04:37:06;20.40;99.90
36132;DHT22;22185;48.738;9.324;2022-08-19T04:39:18;20.50;99.90
36132;DHT22;22185;48.738;9.324;2022-08-19T04:41:21;20.50;99.90
36132;DHT22;22185;48.738;9.324;2022-08-19T04:43:41;20.50;99.90
36132;DHT22;22185;48.738;9.324;2022-08-19T04:45:44;20.50;99.90
36132;DHT22;22185;48.738;9.324;2022-08-19T04:47:46;20.40;99.90
36132;DHT22;22185;48.738;9.324;2022-08-19T04:49:59;20.40;99.90
36132;DHT22;22185;48.738;9.324;2022-08-19T04:52:01;20.50;99.90
36132;DHT22;22185;48.738;9.324;2022-08-19T04:54:03;20.50;99.90
36132;DHT22;22185;48.738;9.324;2022-08-19T04:56:15;20.50;99.90
36132;DHT22;22185;48.738;9.324;2022-08-19T04:58:18;20.40;99.90
36132;DHT22;22185;48.738;9.324;2022-08-19T05:00:20;20.40;99.90
36132;DHT22;22185;48.738;9.324;2022-08-19T05:02:22;20.50;99.90
36132;DHT22;22185;48.738;9.324;2022-08-19T05:04:26;20.40;99.90
36132;DHT22;22185;48.738;9.324;2022-08-19T05:06:28;20.40;99.90
36132;DHT22;22185;48.738;9.324;2022-08-19T05:08:30;20.50;99.90
36132;DHT22;22185;48.738;9.324;2022-08-19T05:10:35;20.50;99.90
36132;DHT22;22185;48.738;9.324;2022-08-19T05:12:37;20.50;99.90
36132;DHT22;22185;48.738;9.324;2022-08-19T05:14:39;20.50;99.90
36132;DHT22;22185;48.738;9.324;2022-08-19T05:16:41;20.50;99.90
36132;DHT22;22185;48.738;9.324;2022-08-19T05:18:43;20.50;99.90
36132;DHT22;22185;48.738;9.324;2022-08-19T05:21:13;20.50;99.90
36132;DHT22;22185;48.738;9.324;2022-08-19T05:23:33;20.60;99.90
36132;DHT22;22185;48.738;9.324;2022-08-19T05:25:39;20.50;99.90
36132;DHT22;22185;48.738;9.324;2022-08-19T05:27:42;20.50;99.90
36132;DHT22;22185;48.738;9.324;2022-08-19T05:29:44;20.60;99.90
36132;DHT22;22185;48.738;9.324;2022-08-19T05:31:47;20.60;99.90
36132;DHT22;22185;48.738;9.324;2022-08-19T05:33:50;20.60;99.90
36132;DHT22;22185;48.738;9.324;2022-08-19T05:35:52;20.60;99.90
36132;DHT22;22185;48.738;9.324;2022-08-19T05:37:54;20.60;99.90
36132;DHT22;22185;48.738;9.324;2022-08-19T05:39:59;20.60;99.90
36132;DHT22;22185;48.738;9.324;2022-08-19T05:42:05;20.50;99.90
36132;DHT22;22185;48.738;9.324;2022-08-19T05:44:10;20.50;99.90
36132;DHT22;22185;48.738;9.324;2022-08-19T05:46:18;20.60;99.90
36132;DHT22;22185;48.738;9.324;2022-08-19T05:48:28;20.60;99.90
36132;DHT22;22185;48.738;9.324;2022-08-19T05:50:31;20.60;99.90
36132;DHT22;22185;48.738;9.324;2022-08-19T05:52:33;20.60;99.90
36132;DHT22;22185;48.738;9.324;2022-08-19T05:54:39;20.60;99.90
36132;DHT22;22185;48.738;9.324;2022-08-19T05:56:43;20.60;99.90
36132;DHT22;22185;48.738;9.324;2022-08-19T05:58:45;20.60;99.90
36132;DHT22;22185;48.738;9.324;2022-08-19T06:00:47;20.60;99.90
36132;DHT22;22185;48.738;9.324;2022-08-19T06:02:49;20.60;99.90
36132;DHT22;22185;48.738;9.324;2022-08-19T06:04:52;20.60;99.90
36132;DHT22;22185;48.738;9.324;2022-08-19T06:06:54;20.50;99.90
36132;DHT22;22185;48.738;9.324;2022-08-19T06:08:57;20.60;99.90
36132;DHT22;22185;48.738;9.324;2022-08-19T06:13:17;20.60;99.90
36132;DHT22;22185;48.738;9.324;2022-08-19T06:15:21;20.60;99.90
36132;DHT22;22185;48.738;9.324;2022-08-19T06:17:27;20.60;99.90
36132;DHT22;22185;48.738;9.324;2022-08-19T06:19:29;20.60;99.90
36132;DHT22;22185;48.738;9.324;2022-08-19T06:21:31;20.60;99.90
36132;DHT22;22185;48.738;9.324;2022-08-19T06:23:34;20.60;99.90
36132;DHT22;22185;48.738;9.324;2022-08-19T06:25:36;20.60;99.90
36132;DHT22;22185;48.738;9.324;2022-08-19T06:27:43;20.40;99.90
36132;DHT22;22185;48.738;9.324;2022-08-19T06:30:05;20.50;99.90
36132;DHT22;22185;48.738;9.324;2022-08-19T06:32:07;20.50;99.90
36132;DHT22;22185;48.738;9.324;2022-08-19T06:34:09;20.40;99.90
36132;DHT22;22185;48.738;9.324;2022-08-19T06:36:26;20.40;99.90
36132;DHT22;22185;48.738;9.324;2022-08-19T06:38:29;20.30;99.90
36132;DHT22;22185;48.738;9.324;2022-08-19T06:40:30;20.40;99.90
36132;DHT22;22185;48.738;9.324;2022-08-19T06:42:32;20.40;99.90
36132;DHT22;22185;48.738;9.324;2022-08-19T06:44:35;20.40;99.90
36132;DHT22;22185;48.738;9.324;2022-08-19T06:46:43;20.50;99.90
36132;DHT22;22185;48.738;9.324;2022-08-19T06:48:54;20.50;99.90
36132;DHT22;22185;48.738;9.324;2022-08-19T06:50:56;20.60;99.90
36132;DHT22;22185;48.738;9.324;2022-08-19T06:52:58;20.60;99.90
36132;DHT22;22185;48.738;9.324;2022-08-19T06:55:05;20.50;99.90
36132;DHT22;22185;48.738;9.324;2022-08-19T06:57:08;20.60;99.90
36132;DHT22;22185;48.738;9.324;2022-08-19T06:59:18;20.60;99.90
36132;DHT22;22185;48.738;9.324;2022-08-19T07:01:20;20.60;99.90
36132;DHT22;22185;48.738;9.324;2022-08-19T07:03:22;20.60;99.90
36132;DHT22;22185;48.738;9.324;2022-08-19T07:05:24;20.60;99.90
36132;DHT22;22185;48.738;9.324;2022-08-19T07:07:26;20.70;99.90
36132;DHT22;22185;48.738;9.324;2022-08-19T07:09:28;20.80;99.90
36132;DHT22;22185;48.738;9.324;2022-08-19T07:11:31;20.80;99.90
36132;DHT22;22185;48.738;9.324;2022-08-19T07:13:35;20.80;99.90
36132;DHT22;22185;48.738;9.324;2022-08-19T07:15:38;20.80;99.90
36132;DHT22;22185;48.738;9.324;2022-08-19T07:17:40;20.80;99.90
36132;DHT22;22185;48.738;9.324;2022-08-19T07:19:45;20.70;99.90
36132;DHT22;22185;48.738;9.324;2022-08-19T07:21:49;20.70;99.90
36132;DHT22;22185;48.738;9.324;2022-08-19T07:23:55;20.70;99.90
36132;DHT22;22185;48.738;9.324;2022-08-19T07:25:57;20.60;99.90
36132;DHT22;22185;48.738;9.324;2022-08-19T07:27:59;20.70;99.90
36132;DHT22;22185;48.738;9.324;2022-08-19T07:30:03;20.60;99.90
36132;DHT22;22185;48.738;9.324;2022-08-19T07:32:06;20.60;99.90
36132;DHT22;22185;48.738;9.324;2022-08-19T07:34:13;20.60;99.90
36132;DHT22;22185;48.738;9.324;2022-08-19T07:36:20;20.60;99.90
36132;DHT22;22185;48.738;9.324;2022-08-19T07:38:23;20.60;99.90
36132;DHT22;22185;48.738;9.324;2022-08-19T07:40:25;20.60;99.90
36132;DHT22;22185;48.738;9.324;2022-08-19T07:42:27;20.60;99.90
36132;DHT22;22185;48.738;9.324;2022-08-19T07:44:31;20.60;99.90
36132;DHT22;22185;48.738;9.324;2022-08-19T07:46:33;20.60;99.90
36132;DHT22;22185;48.738;9.324;2022-08-19T07:48:36;20.50;99.90
36132;DHT22;22185;48.738;9.324;2022-08-19T07:50:38;20.50;99.90
36132;DHT22;22185;48.738;9.324;2022-08-19T07:52:40;20.60;99.90
36132;DHT22;22185;48.738;9.324;2022-08-19T07:54:43;20.60;99.90
36132;DHT22;22185;48.738;9.324;2022-08-19T07:56:45;20.50;99.90
36132;DHT22;22185;48.738;9.324;2022-08-19T07:58:48;20.60;99.90
36132;DHT22;22185;48.738;9.324;2022-08-19T08:00:50;20.40;99.90
36132;DHT22;22185;48.738;9.324;2022-08-19T08:02:53;20.40;99.90
36132;DHT22;22185;48.738;9.324;2022-08-19T08:04:56;20.40;99.90
36132;DHT22;22185;48.738;9.324;2022-08-19T08:07:17;20.50;99.90
36132;DHT22;22185;48.738;9.324;2022-08-19T08:09:52;20.40;99.90
36132;DHT22;22185;48.738;9.324;2022-08-19T08:12:05;20.30;99.90
36132;DHT22;22185;48.738;9.324;2022-08-19T08:14:30;20.30;99.90
36132;DHT22;22185;48.738;9.324;2022-08-19T08:16:37;20.30;99.90
36132;DHT22;22185;48.738;9.324;2022-08-19T08:18:47;20.40;99.90
36132;DHT22;22185;48.738;9.324;2022-08-19T08:20:51;20.40;99.90
36132;DHT22;22185;48.738;9.324;2022-08-19T08:22:53;20.30;99.90
36132;DHT22;22185;48.738;9.324;2022-08-19T08:25:16;20.20;99.90
36132;DHT22;22185;48.738;9.324;2022-08-19T08:27:21;20.20;99.90
36132;DHT22;22185;48.738;9.324;2022-08-19T08:29:29;20.30;99.90
36132;DHT22;22185;48.738;9.324;2022-08-19T08:31:36;20.30;99.90
36132;DHT22;22185;48.738;9.324;2022-08-19T08:33:38;20.40;99.90
36132;DHT22;22185;48.738;9.324;2022-08-19T08:35:43;20.40;99.90
36132;DHT22;22185;48.738;9.324;2022-08-19T08:37:48;20.40;99.90
36132;DHT22;22185;48.738;9.324;2022-08-19T08:39:51;20.40;99.90
36132;DHT22;22185;48.738;9.324;2022-08-19T08:42:11;20.40;99.90
36132;DHT22;22185;48.738;9.324;2022-08-19T08:44:48;20.40;99.90
36132;DHT22;22185;48.738;9.324;2022-08-19T08:46:51;20.30;99.90
36132;DHT22;22185;48.738;9.324;2022-08-19T08:49:30;20.50;99.90
36132;DHT22;22185;48.738;9.324;2022-08-19T08:51:44;20.60;99.90
36132;DHT22;22185;48.738;9.324;2022-08-19T08:54:02;20.70;99.90
36132;DHT22;22185;48.738;9.324;2022-08-19T08:56:07;20.80;99.90
36132;DHT22;22185;48.738;9.324;2022-08-19T08:58:20;20.70;99.90
36132;DHT22;22185;48.738;9.324;2022-08-19T09:00:34;20.70;99.90
36132;DHT22;22185;48.738;9.324;2022-08-19T09:02:36;20.70;99.90
36132;DHT22;22185;48.738;9.324;2022-08-19T09:04:38;20.70;99.90
36132;DHT22;22185;48.738;9.324;2022-08-19T09:07:09;20.70;99.90
36132;DHT22;22185;48.738;9.324;2022-08-19T09:09:40;20.70;99.90
36132;DHT22;22185;48.738;9.324;2022-08-19T09:14:45;20.60;99.90
36132;DHT22;22185;48.738;9.324;2022-08-19T09:16:52;20.50;99.90
36132;DHT22;22185;48.738;9.324;2022-08-19T09:18:57;20.40;99.90
36132;DHT22;22185;48.738;9.324;2022-08-19T09:21:00;20.50;99.90
36132;DHT22;22185;48.738;9.324;2022-08-19T09:23:02;20.50;99.90
36132;DHT22;22185;48.738;9.324;2022-08-19T09:25:07;20.50;99.90
36132;DHT22;22185;48.738;9.324;2022-08-19T09:27:09;20.60;99.90
36132;DHT22;22185;48.738;9.324;2022-08-19T09:29:19;20.60;99.90
36132;DHT22;22185;48.738;9.324;2022-08-19T09:31:26;20.60;99.90
36132;DHT22;22185;48.738;9.324;2022-08-19T09:33:28;20.60;99.90
36132;DHT22;22185;48.738;9.324;2022-08-19T09:35:30;20.70;99.90
36132;DHT22;22185;48.738;9.324;2022-08-19T09:37:51;20.70;99.90
36132;DHT22;22185;48.738;9.324;2022-08-19T09:39:59;20.60;99.90
36132;DHT22;22185;48.738;9.324;2022-08-19T09:42:03;20.60;99.90
36132;DHT22;22185;48.738;9.324;2022-08-19T09:44:17;20.60;99.90
36132;DHT22;22185;48.738;9.324;2022-08-19T09:46:19;20.50;99.90
36132;DHT22;22185;48.738;9.324;2022-08-19T09:48:24;20.60;99.90
36132;DHT22;22185;48.738;9.324;2022-08-19T09:50:26;20.40;99.90
36132;DHT22;22185;48.738;9.324;2022-08-19T09:52:28;20.40;99.90
36132;DHT22;22185;48.738;9.324;2022-08-19T09:54:34;20.30;99.90
36132;DHT22;22185;48.738;9.324;2022-08-19T09:56:37;20.20;99.90
36132;DHT22;22185;48.738;9.324;2022-08-19T09:58:42;20.20;99.90
36132;DHT22;22185;48.738;9.324;2022-08-19T10:00:44;20.30;99.90
36132;DHT22;22185;48.738;9.324;2022-08-19T10:02:52;20.30;99.90
36132;DHT22;22185;48.738;9.324;2022-08-19T10:04:54;20.40;99.90
36132;DHT22;22185;48.738;9.324;2022-08-19T10:07:23;20.40;99.90
36132;DHT22;22185;48.738;9.324;2022-08-19T10:09:37;20.30;99.90
36132;DHT22;22185;48.738;9.324;2022-08-19T10:11:41;20.40;99.90
36132;DHT22;22185;48.738;9.324;2022-08-19T10:13:55;20.50;99.90
36132;DHT22;22185;48.738;9.324;2022-08-19T10:16:04;20.50;99.90
36132;DHT22;22185;48.738;9.324;2022-08-19T10:18:07;20.50;99.90
36132;DHT22;22185;48.738;9.324;2022-08-19T10:20:09;20.50;99.90
36132;DHT22;22185;48.738;9.324;2022-08-19T10:22:11;20.50;99.90
36132;DHT22;22185;48.738;9.324;2022-08-19T10:24:15;20.40;99.90
36132;DHT22;22185;48.738;9.324;2022-08-19T10:26:21;20.40;99.90
36132;DHT22;22185;48.738;9.324;2022-08-19T10:28:27;20.40;99.90
36132;DHT22;22185;48.738;9.324;2022-08-19T10:30:31;20.30;99.90
36132;DHT22;22185;48.738;9.324;2022-08-19T10:32:33;20.30;99.90
36132;DHT22;22185;48.738;9.324;2022-08-19T10:34:38;20.40;99.90
36132;DHT22;22185;48.738;9.324;2022-08-19T10:36:49;20.40;99.90
36132;DHT22;22185;48.738;9.324;2022-08-19T10:39:04;20.40;99.90
36132;DHT22;22185;48.738;9.324;2022-08-19T10:41:08;20.40;99.90
36132;DHT22;22185;48.738;9.324;2022-08-19T10:43:10;20.50;99.90
36132;DHT22;22185;48.738;9.324;2022-08-19T10:45:12;20.60;99.90
36132;DHT22;22185;48.738;9.324;2022-08-19T10:47:14;20.60;99.90
36132;DHT22;22185;48.738;9.324;2022-08-19T10:49:25;20.60;99.90
36132;DHT22;22185;48.738;9.324;2022-08-19T10:51:29;20.70;99.90
36132;DHT22;22185;48.738;9.324;2022-08-19T10:53:51;20.60;99.90
36132;DHT22;22185;48.738;9.324;2022-08-19T10:55:55;20.60;99.90
36132;DHT22;22185;48.738;9.324;2022-08-19T10:58:18;20.50;99.90
36132;DHT22;22185;48.738;9.324;2022-08-19T11:00:24;20.40;99.90
36132;DHT22;22185;48.738;9.324;2022-08-19T11:02:26;20.40;99.90
36132;DHT22;22185;48.738;9.324;2022-08-19T11:04:28;20.30;99.90
36132;DHT22;22185;48.738;9.324;2022-08-19T11:06:45;20.30;99.90
36132;DHT22;22185;48.738;9.324;2022-08-19T11:08:54;20.30;99.90
36132;DHT22;22185;48.738;9.324;2022-08-19T11:11:00;20.20;99.90
36132;DHT22;22185;48.738;9.324;2022-08-19T11:13:02;20.20;99.90
36132;DHT22;22185;48.738;9.324;2022-08-19T11:15:06;20.20;99.90
36132;DHT22;22185;48.738;9.324;2022-08-19T11:17:09;20.20;99.90
36132;DHT22;22185;48.738;9.324;2022-08-19T11:19:13;20.20;99.90
36132;DHT22;22185;48.738;9.324;2022-08-19T11:23:21;20.20;99.90
36132;DHT22;22185;48.738;9.324;2022-08-19T11:25:24;20.10;99.90
36132;DHT22;22185;48.738;9.324;2022-08-19T11:27:26;20.20;99.90
36132;DHT22;22185;48.738;9.324;2022-08-19T11:29:31;20.20;99.90
36132;DHT22;22185;48.738;9.324;2022-08-19T11:31:34;20.20;99.90
36132;DHT22;22185;48.738;9.324;2022-08-19T11:33:40;20.10;99.90
36132;DHT22;22185;48.738;9.324;2022-08-19T11:35:48;20.10;99.90
36132;DHT22;22185;48.738;9.324;2022-08-19T11:37:50;20.10;99.90
36132;DHT22;22185;48.738;9.324;2022-08-19T11:39:52;20.10;99.90
36132;DHT22;22185;48.738;9.324;2022-08-19T11:41:55;20.20;99.90
36132;DHT22;22185;48.738;9.324;2022-08-19T11:43:57;20.20;99.90
36132;DHT22;22185;48.738;9.324;2022-08-19T11:46:03;20.20;99.90
36132;DHT22;22185;48.738;9.324;2022-08-19T11:48:04;20.30;99.90
36132;DHT22;22185;48.738;9.324;2022-08-19T11:50:09;20.40;99.90
36132;DHT22;22185;48.738;9.324;2022-08-19T11:52:11;20.50;99.90
36132;DHT22;22185;48.738;9.324;2022-08-19T11:54:13;20.40;99.90
36132;DHT22;22185;48.738;9.324;2022-08-19T11:56:15;20.50;99.90
36132;DHT22;22185;48.738;9.324;2022-08-19T11:58:17;20.60;99.90
36132;DHT22;22185;48.738;9.324;2022-08-19T12:00:19;20.50;99.90
36132;DHT22;22185;48.738;9.324;2022-08-19T12:02:21;20.40;99.90
36132;DHT22;22185;48.738;9.324;2022-08-19T12:04:24;20.40;99.90
36132;DHT22;22185;48.738;9.324;2022-08-19T12:06:29;20.40;99.90
36132;DHT22;22185;48.738;9.324;2022-08-19T12:08:31;20.40;99.90
36132;DHT22;22185;48.738;9.324;2022-08-19T12:10:34;20.40;99.90
36132;DHT22;22185;48.738;9.324;2022-08-19T12:12:36;20.40;99.90
36132;DHT22;22185;48.738;9.324;2022-08-19T12:14:44;20.30;99.90
36132;DHT22;22185;48.738;9.324;2022-08-19T12:16:46;20.30;99.90
36132;DHT22;22185;48.738;9.324;2022-08-19T12:18:52;20.30;99.90
36132;DHT22;22185;48.738;9.324;2022-08-19T12:20:54;20.30;99.90
36132;DHT22;22185;48.738;9.324;2022-08-19T12:22:56;20.30;99.90
36132;DHT22;22185;48.738;9.324;2022-08-19T12:24:58;20.30;99.90
36132;DHT22;22185;48.738;9.324;2022-08-19T12:27:00;20.30;99.90
36132;DHT22;22185;48.738;9.324;2022-08-19T12:29:04;20.40;99.90
36132;DHT22;22185;48.738;9.324;2022-08-19T12:31:05;20.40;99.90
36132;DHT22;22185;48.738;9.324;2022-08-19T12:33:07;20.50;99.90
36132;DHT22;22185;48.738;9.324;2022-08-19T12:35:12;20.40;99.90
36132;DHT22;22185;48.738;9.324;2022-08-19T12:37:14;20.40;99.90
36132;DHT22;22185;48.738;9.324;2022-08-19T12:39:16;20.50;99.90
36132;DHT22;22185;48.738;9.324;2022-08-19T12:41:18;20.50;99.90
36132;DHT22;22185;48.738;9.324;2022-08-19T12:43:23;20.40;99.90
36132;DHT22;22185;48.738;9.324;2022-08-19T12:45:26;20.40;99.90
36132;DHT22;22185;48.738;9.324;2022-08-19T12:47:28;20.40;99.90
36132;DHT22;22185;48.738;9.324;2022-08-19T12:49:33;20.60;99.90
36132;DHT22;22185;48.738;9.324;2022-08-19T12:51:55;20.70;99.90
36132;DHT22;22185;48.738;9.324;2022-08-19T12:53:57;20.70;99.90
36132;DHT22;22185;48.738;9.324;2022-08-19T12:55:59;20.70;99.90
36132;DHT22;22185;48.738;9.324;2022-08-19T12:58:01;20.80;99.90
36132;DHT22;22185;48.738;9.324;2022-08-19T13:02:09;20.80;99.90
36132;DHT22;22185;48.738;9.324;2022-08-19T13:04:11;20.80;99.90
36132;DHT22;22185;48.738;9.324;2022-08-19T13:06:14;20.80;99.90
36132;DHT22;22185;48.738;9.324;2022-08-19T13:08:19;20.70;99.90
36132;DHT22;22185;48.738;9.324;2022-08-19T13:10:23;20.70;99.90
36132;DHT22;22185;48.738;9.324;2022-08-19T13:12:26;20.70;99.90
36132;DHT22;22185;48.738;9.324;2022-08-19T13:14:28;20.60;99.90
36132;DHT22;22185;48.738;9.324;2022-08-19T13:16:34;20.70;99.90
36132;DHT22;22185;48.738;9.324;2022-08-19T13:18:38;20.70;99.90
36132;DHT22;22185;48.738;9.324;2022-08-19T13:20:41;20.60;99.90
36132;DHT22;22185;48.738;9.324;2022-08-19T13:22:53;20.50;99.90